createdAt,value
2019-01-10T00:01:06.018Z,70.53
2019-01-10T00:03:36.536Z,76.47
2019-01-10T00:06:07.201Z,79.07
2019-01-10T00:08:40.402Z,73.00
2019-01-10T00:11:10.924Z,66.30
2019-01-10T00:13:41.444Z,72.00
2019-01-10T00:16:11.953Z,61.13
2019-01-10T00:18:43.471Z,78.20
2019-01-10T00:21:14.005Z,72.23
2019-01-10T00:23:44.580Z,68.60
2019-01-10T00:26:15.084Z,66.10
2019-01-10T00:28:45.601Z,73.47
2019-01-10T00:31:16.150Z,69.27
2019-01-10T00:33:46.674Z,76.03
2019-01-10T00:36:17.201Z,66.00
2019-01-10T00:38:47.684Z,79.23
2019-01-10T00:41:18.218Z,67.67
2019-01-10T00:43:48.795Z,74.00
2019-01-10T00:46:19.291Z,72.60
2019-01-10T00:48:49.795Z,81.80
2019-01-10T00:51:20.314Z,80.40
2019-01-10T00:53:50.832Z,74.00
2019-01-10T00:56:21.377Z,69.80
2019-01-10T00:58:51.866Z,71.33
2019-01-10T01:01:22.361Z,75.43
2019-01-10T01:03:53.136Z,65.13
2019-01-10T01:06:23.649Z,70.30
2019-01-10T01:08:54.130Z,63.77
2019-01-10T01:11:24.710Z,68.20
2019-01-10T01:13:55.220Z,72.80
2019-01-10T01:16:25.718Z,68.00
2019-01-10T01:18:56.307Z,60.93
2019-01-10T01:21:26.799Z,67.90
2019-01-10T01:23:57.340Z,70.60
2019-01-10T01:26:27.825Z,76.40
2019-01-10T01:28:58.346Z,67.20
2019-01-10T01:31:28.841Z,67.90
2019-01-10T01:33:59.355Z,61.50
2019-01-10T01:36:29.849Z,64.10
2019-01-10T01:39:00.367Z,64.57
2019-01-10T01:41:30.863Z,61.50
2019-01-10T01:44:01.450Z,61.20
2019-01-10T01:46:32.009Z,69.23
2019-01-10T01:49:02.601Z,67.17
2019-01-10T01:51:33.087Z,63.00
2019-01-10T01:54:03.600Z,63.77
2019-01-10T01:56:34.180Z,73.43
2019-01-10T01:59:04.735Z,57.90
2019-01-10T02:01:35.253Z,60.33
2019-01-10T02:04:05.796Z,56.90
2019-01-10T02:06:36.308Z,57.13
2019-01-10T02:09:07.553Z,62.57
2019-01-10T02:11:38.069Z,54.87
2019-01-10T02:14:08.623Z,56.87
2019-01-10T02:16:39.146Z,58.87
2019-01-10T02:19:09.666Z,66.20
2019-01-10T02:21:40.154Z,56.80
2019-01-10T02:24:10.745Z,63.03
2019-01-10T02:26:41.328Z,57.90
2019-01-10T02:29:11.814Z,66.33
2019-01-10T02:31:42.338Z,59.40
2019-01-10T02:34:12.825Z,60.83
2019-01-10T02:36:43.339Z,66.23
2019-01-10T02:39:13.822Z,56.70
2019-01-10T02:41:44.427Z,65.07
2019-01-10T02:44:14.924Z,63.27
2019-01-10T02:46:45.445Z,57.97
2019-01-10T02:49:15.951Z,61.00
2019-01-10T02:51:46.473Z,61.30
2019-01-10T02:54:17.000Z,66.63
2019-01-10T02:56:47.524Z,64.20
2019-01-10T02:59:18.055Z,111.93
2019-01-10T03:01:48.606Z,156.50
2019-01-10T03:04:19.100Z,101.90
2019-01-10T03:06:49.620Z,64.90
2019-01-10T03:09:20.171Z,59.30
2019-01-10T03:11:50.759Z,66.87
2019-01-10T03:14:21.268Z,61.83
2019-01-10T03:16:51.761Z,58.40
2019-01-10T03:19:22.277Z,58.93
2019-01-10T03:21:52.805Z,58.90
2019-01-10T03:24:23.296Z,60.97
2019-01-10T03:26:53.825Z,57.60
2019-01-10T03:29:24.319Z,63.67
2019-01-10T03:31:54.851Z,70.77
2019-01-10T03:34:25.334Z,63.60
2019-01-10T03:36:55.879Z,79.53
2019-01-10T03:39:26.392Z,59.70
2019-01-10T03:41:56.886Z,66.73
2019-01-10T03:44:34.048Z,57.43
2019-01-10T03:46:59.593Z,62.17
2019-01-10T03:49:30.179Z,63.83
2019-01-10T03:52:00.655Z,55.87
2019-01-10T03:54:32.612Z,70.43
2019-01-10T03:57:03.112Z,62.77
2019-01-10T03:59:33.642Z,68.90
2019-01-10T04:02:04.230Z,66.10
2019-01-10T04:04:34.715Z,59.67
2019-01-10T04:07:05.378Z,63.57
2019-01-10T04:09:35.907Z,59.27
2019-01-10T04:12:06.429Z,52.60
2019-01-10T04:14:37.008Z,61.47
2019-01-10T04:17:07.571Z,66.57
2019-01-10T04:19:38.191Z,59.73
2019-01-10T04:22:08.758Z,58.90
2019-01-10T04:24:50.309Z,66.97
2019-01-10T04:27:21.060Z,64.80
2019-01-10T04:29:51.562Z,47.23
2019-01-10T04:32:22.087Z,55.40
2019-01-10T04:34:53.336Z,55.60
2019-01-10T04:37:23.860Z,55.47
2019-01-10T04:39:54.379Z,54.17
2019-01-10T04:42:24.932Z,49.30
2019-01-10T04:44:55.481Z,57.20
2019-01-10T04:47:25.989Z,52.63
2019-01-10T04:49:56.505Z,56.93
2019-01-10T04:52:27.031Z,63.17
2019-01-10T04:54:57.627Z,54.70
2019-01-10T04:57:47.529Z,62.43
2019-01-10T05:00:22.023Z,50.50
2019-01-10T05:02:52.568Z,51.57
2019-01-10T05:05:23.153Z,51.30
2019-01-10T05:07:53.750Z,55.70
2019-01-10T05:10:24.317Z,58.07
2019-01-10T05:12:54.810Z,54.57
2019-01-10T05:15:25.335Z,59.23
2019-01-10T05:17:55.819Z,51.70
2019-01-10T05:20:26.418Z,60.57
2019-01-10T05:22:56.900Z,111.67
2019-01-10T05:25:27.422Z,83.10
2019-01-10T05:27:57.916Z,55.07
2019-01-10T05:30:28.432Z,51.00
2019-01-10T05:32:58.937Z,53.60
2019-01-10T05:35:29.454Z,55.90
2019-01-10T05:38:00.015Z,57.70
2019-01-10T05:40:30.592Z,46.07
2019-01-10T05:43:01.084Z,49.87
2019-01-10T05:45:31.619Z,62.33
2019-01-10T05:48:02.119Z,59.33
2019-01-10T05:50:32.624Z,51.80
2019-01-10T05:53:03.121Z,53.43
2019-01-10T05:55:33.653Z,59.57
2019-01-10T05:58:04.149Z,60.40
2019-01-10T06:00:34.670Z,53.60
2019-01-10T06:03:05.260Z,60.33
2019-01-10T06:05:35.756Z,68.67
2019-01-10T06:08:06.348Z,54.67
2019-01-10T06:10:36.875Z,66.93
2019-01-10T06:13:07.467Z,69.37
2019-01-10T06:15:37.964Z,60.23
2019-01-10T06:18:08.550Z,53.70
2019-01-10T06:20:39.073Z,67.23
2019-01-10T06:23:09.560Z,59.07
2019-01-10T06:25:40.105Z,53.77
2019-01-10T06:28:10.588Z,73.20
2019-01-10T06:30:41.115Z,54.53
2019-01-10T06:33:11.599Z,63.93
2019-01-10T06:35:42.201Z,69.10
2019-01-10T06:38:12.692Z,68.23
2019-01-10T06:40:43.225Z,63.77
2019-01-10T06:43:13.714Z,77.50
2019-01-10T06:45:44.244Z,56.90
2019-01-10T06:48:14.774Z,64.73
2019-01-10T06:50:45.266Z,63.70
2019-01-10T06:53:15.853Z,66.60
2019-01-10T06:55:46.382Z,71.87
2019-01-10T06:58:36.252Z,79.23
2019-01-10T07:01:06.808Z,70.50
2019-01-10T07:03:37.386Z,85.73
2019-01-10T07:06:07.908Z,64.33
2019-01-10T07:08:38.405Z,74.37
2019-01-10T07:11:08.932Z,71.87
2019-01-10T07:13:39.429Z,66.17
2019-01-10T07:16:09.947Z,81.13
2019-01-10T07:18:40.442Z,118.77
2019-01-10T07:21:10.984Z,121.00
2019-01-10T07:23:45.226Z,95.43
2019-01-10T07:26:16.037Z,94.77
2019-01-10T07:28:46.539Z,86.60
2019-01-10T07:31:29.918Z,84.53
2019-01-10T07:34:00.541Z,92.37
2019-01-10T07:36:31.171Z,112.97
2019-01-10T07:39:01.966Z,94.03
2019-01-10T07:41:32.453Z,83.17
2019-01-10T07:44:02.978Z,91.10
2019-01-10T07:46:33.465Z,94.63
2019-01-10T07:49:03.980Z,89.97
2019-01-10T07:51:38.232Z,97.13
2019-01-10T07:54:08.487Z,84.13
2019-01-10T07:56:39.082Z,81.60
2019-01-10T07:59:09.637Z,79.10
2019-01-10T08:01:40.209Z,103.60
2019-01-10T08:04:10.796Z,106.00
2019-01-10T08:06:41.367Z,101.53
2019-01-10T08:09:11.995Z,82.60
2019-01-10T08:11:42.550Z,88.00
2019-01-10T08:14:13.030Z,129.63
2019-01-10T08:16:43.550Z,93.07
2019-01-10T08:19:14.104Z,105.07
2019-01-10T08:21:46.532Z,80.97
2019-01-10T08:24:16.937Z,94.53
2019-01-10T08:26:47.437Z,101.03
2019-01-10T08:29:17.988Z,97.10
2019-01-10T08:31:48.601Z,115.10
2019-01-10T08:34:19.132Z,96.17
2019-01-10T08:36:49.615Z,101.60
2019-01-10T08:39:20.132Z,94.43
2019-01-10T08:41:50.661Z,101.70
2019-01-10T08:44:21.182Z,85.07
2019-01-10T08:46:51.664Z,77.00
2019-01-10T08:49:22.194Z,81.57
2019-01-10T08:51:52.690Z,79.63
2019-01-10T08:54:23.205Z,85.87
2019-01-10T08:56:53.798Z,90.23
2019-01-10T08:59:24.313Z,97.40
2019-01-10T09:01:54.799Z,88.83
2019-01-10T09:04:25.334Z,72.90
2019-01-10T09:06:55.821Z,79.63
2019-01-10T09:09:26.335Z,82.80
2019-01-10T09:11:56.870Z,75.97
2019-01-10T09:14:27.379Z,133.40
2019-01-10T09:16:57.894Z,93.33
2019-01-10T09:19:28.378Z,89.23
2019-01-10T09:22:18.241Z,86.90
2019-01-10T09:24:48.755Z,93.27
2019-01-10T09:27:19.279Z,79.93
2019-01-10T09:29:49.761Z,84.20
2019-01-10T09:32:20.267Z,89.97
2019-01-10T09:34:50.758Z,96.67
2019-01-10T09:37:21.275Z,86.43
2019-01-10T09:39:51.779Z,90.73
2019-01-10T09:42:22.296Z,80.13
2019-01-10T09:44:52.772Z,84.13
2019-01-10T09:47:23.285Z,82.17
2019-01-10T09:49:53.792Z,73.33
2019-01-10T09:52:24.307Z,78.80
2019-01-10T09:54:54.811Z,181.97
2019-01-10T09:57:25.308Z,186.67
2019-01-10T09:59:56.010Z,103.63
2019-01-10T10:02:26.499Z,72.93
2019-01-10T10:04:57.052Z,73.27
2019-01-10T10:07:27.529Z,75.07
2019-01-10T10:09:58.038Z,82.27
2019-01-10T10:12:28.549Z,77.73
2019-01-10T10:14:59.088Z,76.30
2019-01-10T10:17:29.609Z,83.13
2019-01-10T10:20:00.396Z,82.67
2019-01-10T10:22:30.887Z,97.73
2019-01-10T10:25:01.384Z,92.50
2019-01-10T10:27:31.885Z,86.33
2019-01-10T10:30:02.388Z,106.37
2019-01-10T10:32:32.921Z,83.30
2019-01-10T10:35:03.959Z,99.50
2019-01-10T10:37:34.518Z,99.87
2019-01-10T10:40:12.332Z,81.20
2019-01-10T10:42:43.018Z,94.63
2019-01-10T10:45:16.963Z,99.33
2019-01-10T10:47:47.643Z,84.47
2019-01-10T10:50:25.051Z,89.03
2019-01-10T10:52:55.691Z,99.57
2019-01-10T10:55:26.281Z,118.67
2019-01-10T10:57:56.759Z,98.50
2019-01-10T11:00:28.878Z,88.60
2019-01-10T11:02:59.613Z,84.40
2019-01-10T11:05:30.284Z,92.50
2019-01-10T11:08:02.186Z,85.30
2019-01-10T11:10:32.664Z,81.23
2019-01-10T11:13:03.239Z,87.90
2019-01-10T11:15:33.723Z,96.50
2019-01-10T11:18:04.751Z,90.13
2019-01-10T11:20:35.256Z,87.13
2019-01-10T11:23:10.774Z,95.47
2019-01-10T11:25:38.369Z,80.63
2019-01-10T11:28:08.923Z,89.20
2019-01-10T11:30:39.501Z,90.80
2019-01-10T11:33:09.981Z,83.90
2019-01-10T11:35:40.492Z,91.30
2019-01-10T11:38:10.962Z,85.20
2019-01-10T11:40:41.468Z,95.90
2019-01-10T11:43:12.044Z,92.93
2019-01-10T11:45:42.653Z,94.70
2019-01-10T11:48:13.199Z,89.97
2019-01-10T11:50:43.779Z,92.70
2019-01-10T11:53:14.288Z,91.00
2019-01-10T11:55:44.812Z,95.13
2019-01-10T11:58:15.291Z,154.10
2019-01-10T12:00:47.407Z,99.00
2019-01-10T12:03:17.995Z,101.77
2019-01-10T12:05:52.779Z,95.17
2019-01-10T12:08:20.778Z,91.33
2019-01-10T12:10:51.517Z,78.80
2019-01-10T12:13:21.996Z,84.23
2019-01-10T12:15:52.560Z,86.30
2019-01-10T12:18:23.034Z,84.00
2019-01-10T12:20:53.538Z,95.83
2019-01-10T12:23:24.037Z,42.63
2019-01-10T12:25:54.622Z,19.37
2019-01-10T12:28:26.597Z,25.00
2019-01-10T12:30:57.504Z,13.53
2019-01-10T12:33:28.022Z,12.53
2019-01-10T12:35:58.597Z,11.67
2019-01-10T12:38:29.103Z,10.97
2019-01-10T12:40:59.582Z,10.23
2019-01-10T12:43:30.139Z,10.73
2019-01-10T12:46:00.611Z,9.63
2019-01-10T12:48:31.103Z,11.80
2019-01-10T12:51:01.650Z,10.13
2019-01-10T12:53:32.150Z,10.50
2019-01-10T12:56:02.632Z,14.20
2019-01-10T12:58:33.138Z,11.40
2019-01-10T13:01:03.611Z,14.20
2019-01-10T13:03:34.206Z,18.70
2019-01-10T13:06:04.760Z,13.00
2019-01-10T13:08:35.266Z,12.80
2019-01-10T13:11:06.086Z,13.10
2019-01-10T13:13:36.602Z,11.13
2019-01-10T13:16:07.157Z,11.50
2019-01-10T13:18:37.666Z,12.80
2019-01-10T13:21:09.712Z,14.07
2019-01-10T13:23:40.360Z,18.80
2019-01-10T13:26:11.146Z,18.50
2019-01-10T13:28:41.635Z,61.10
2019-01-10T13:31:12.174Z,17.80
2019-01-10T13:33:42.702Z,16.60
2019-01-10T13:36:13.231Z,13.27
2019-01-10T13:38:43.739Z,13.47
2019-01-10T13:41:14.266Z,17.27
2019-01-10T13:43:44.742Z,16.87
2019-01-10T13:46:16.210Z,13.10
2019-01-10T13:48:51.474Z,19.40
2019-01-10T13:51:19.016Z,17.77
2019-01-10T13:53:49.552Z,17.03
2019-01-10T13:56:20.026Z,17.27
2019-01-10T13:58:50.554Z,16.57
2019-01-10T14:01:21.091Z,14.30
2019-01-10T14:03:51.794Z,17.30
2019-01-10T14:06:22.289Z,14.33
2019-01-10T14:08:53.115Z,14.70
2019-01-10T14:11:23.791Z,13.57
2019-01-10T14:13:54.314Z,12.87
2019-01-10T14:16:24.790Z,19.80
2019-01-10T14:18:55.430Z,25.60
2019-01-10T14:21:26.917Z,17.53
2019-01-10T14:23:57.410Z,15.33
2019-01-10T14:26:27.997Z,15.13
2019-01-10T14:28:58.660Z,16.67
2019-01-10T14:31:29.318Z,17.40
2019-01-10T14:33:59.792Z,15.57
2019-01-10T14:36:30.312Z,17.87
2019-01-10T14:39:00.818Z,17.50
2019-01-10T14:41:31.377Z,29.50
2019-01-10T14:44:01.923Z,35.73
2019-01-10T14:46:33.020Z,20.23
2019-01-10T14:49:03.614Z,13.53
2019-01-10T14:51:34.172Z,19.83
2019-01-10T14:54:04.740Z,19.10
2019-01-10T14:56:35.290Z,18.43
2019-01-10T14:59:05.801Z,18.80
2019-01-10T15:01:36.372Z,20.87
2019-01-10T15:04:07.553Z,21.33
2019-01-10T15:06:38.164Z,15.70
2019-01-10T15:09:08.903Z,15.50
2019-01-10T15:11:39.548Z,21.20
2019-01-10T15:14:16.053Z,22.53
2019-01-10T15:16:42.290Z,23.10
2019-01-10T15:19:12.843Z,14.87
2019-01-10T15:21:43.343Z,24.73
2019-01-10T15:24:13.860Z,39.83
2019-01-10T15:26:44.399Z,22.07
2019-01-10T15:29:14.915Z,17.13
2019-01-10T15:31:45.405Z,17.13
2019-01-10T15:34:15.913Z,21.33
2019-01-10T15:36:46.469Z,21.30
2019-01-10T15:39:17.061Z,22.93
2019-01-10T15:41:47.604Z,24.30
2019-01-10T15:44:18.126Z,24.70
2019-01-10T15:46:48.624Z,32.40
2019-01-10T15:49:19.118Z,26.40
2019-01-10T15:51:49.760Z,23.90
2019-01-10T15:54:20.333Z,22.33
2019-01-10T15:56:50.963Z,21.13
2019-01-10T15:59:21.473Z,22.03
2019-01-10T16:01:52.036Z,24.30
2019-01-10T16:04:23.690Z,25.63
2019-01-10T16:06:54.349Z,26.63
2019-01-10T16:09:25.190Z,24.03
2019-01-10T16:11:55.713Z,20.17
2019-01-10T16:14:26.320Z,24.00
2019-01-10T16:16:56.833Z,22.63
2019-01-10T16:19:27.324Z,23.03
2019-01-10T16:21:57.876Z,26.17
2019-01-10T16:24:28.396Z,28.40
2019-01-10T16:26:58.894Z,22.70
2019-01-10T16:29:29.401Z,24.87
2019-01-10T16:32:01.423Z,19.33
2019-01-10T16:34:33.496Z,25.00
2019-01-10T16:37:04.104Z,22.77
2019-01-10T16:39:34.634Z,27.13
2019-01-10T16:42:05.314Z,24.70
2019-01-10T16:44:35.808Z,21.83
2019-01-10T16:47:06.393Z,25.20
2019-01-10T16:49:36.904Z,24.27
2019-01-10T16:52:07.396Z,20.73
2019-01-10T16:54:38.165Z,24.20
2019-01-10T16:57:08.696Z,19.83
2019-01-10T16:59:39.837Z,17.70
2019-01-10T17:02:10.406Z,20.53
2019-01-10T17:04:40.909Z,20.00
2019-01-10T17:07:11.398Z,26.70
2019-01-10T17:09:41.883Z,25.80
2019-01-10T17:12:12.455Z,22.10
2019-01-10T17:14:43.007Z,20.83
2019-01-10T17:17:14.137Z,19.37
2019-01-10T17:19:45.088Z,20.97
2019-01-10T17:22:15.665Z,22.13
2019-01-10T17:24:46.196Z,20.17
2019-01-10T17:27:16.668Z,19.90
2019-01-10T17:29:47.177Z,20.93
2019-01-10T17:32:17.663Z,25.03
2019-01-10T17:34:48.215Z,22.80
2019-01-10T17:37:18.724Z,23.83
2019-01-10T17:39:49.205Z,20.97
2019-01-10T17:42:20.001Z,24.93
2019-01-10T17:44:50.500Z,24.97
2019-01-10T17:47:20.985Z,23.70
2019-01-10T17:49:51.594Z,21.93
2019-01-10T17:52:25.107Z,25.83
2019-01-10T17:54:54.307Z,25.70
2019-01-10T17:57:24.781Z,28.57
2019-01-10T17:59:55.285Z,32.43
2019-01-10T18:02:26.640Z,40.27
2019-01-10T18:04:57.145Z,24.93
2019-01-10T18:07:29.497Z,23.30
2019-01-10T18:10:00.038Z,29.53
2019-01-10T18:12:30.552Z,26.67
2019-01-10T18:15:01.043Z,29.07
2019-01-10T18:17:31.562Z,23.03
2019-01-10T18:20:02.068Z,30.07
2019-01-10T18:22:32.592Z,26.13
2019-01-10T18:25:03.145Z,29.97
2019-01-10T18:27:33.915Z,27.73
2019-01-10T18:30:07.907Z,30.43
2019-01-10T18:32:38.386Z,26.33
2019-01-10T18:35:09.724Z,30.43
2019-01-10T18:37:40.366Z,24.07
2019-01-10T18:40:14.597Z,26.37
2019-01-10T18:42:45.575Z,21.70
2019-01-10T18:45:20.349Z,25.10
2019-01-10T18:47:56.715Z,27.03
2019-01-10T18:50:25.557Z,30.40
2019-01-10T18:52:56.183Z,28.53
2019-01-10T18:55:26.776Z,23.17
2019-01-10T18:57:57.257Z,24.80
2019-01-10T19:00:29.893Z,29.87
2019-01-10T19:03:00.553Z,32.37
2019-01-10T19:05:31.374Z,33.37
2019-01-10T19:08:02.145Z,26.20
2019-01-10T19:10:32.710Z,34.60
2019-01-10T19:13:03.228Z,26.57
2019-01-10T19:15:33.802Z,23.87
2019-01-10T19:18:04.650Z,30.30
2019-01-10T19:20:35.181Z,30.37
2019-01-10T19:23:06.241Z,27.43
2019-01-10T19:25:36.734Z,28.77
2019-01-10T19:28:07.329Z,24.90
2019-01-10T19:30:37.824Z,29.23
2019-01-10T19:33:08.492Z,31.93
2019-01-10T19:35:39.057Z,29.83
2019-01-10T19:38:09.726Z,29.07
2019-01-10T19:40:40.288Z,30.33
2019-01-10T19:43:10.814Z,29.80
2019-01-10T19:45:41.304Z,31.10
2019-01-10T19:48:11.898Z,33.20
2019-01-10T19:50:42.385Z,25.27
2019-01-10T19:53:12.962Z,31.23
2019-01-10T19:55:43.484Z,27.17
2019-01-10T19:58:14.089Z,26.90
2019-01-10T20:00:44.612Z,30.47
2019-01-10T20:03:15.213Z,30.63
2019-01-10T20:05:45.707Z,27.80
2019-01-10T20:08:16.227Z,26.17
2019-01-10T20:10:46.810Z,23.27
2019-01-10T20:13:17.382Z,26.30
2019-01-10T20:15:47.895Z,24.83
2019-01-10T20:18:18.578Z,31.30
2019-01-10T20:20:49.544Z,22.73
2019-01-10T20:23:20.132Z,25.03
2019-01-10T20:25:50.625Z,26.13
2019-01-10T20:28:21.154Z,23.33
2019-01-10T20:30:51.653Z,26.27
2019-01-10T20:33:22.231Z,22.90
2019-01-10T20:35:52.747Z,26.07
2019-01-10T20:38:23.359Z,21.50
2019-01-10T20:40:53.983Z,23.00
2019-01-10T20:43:24.530Z,26.47
2019-01-10T20:45:55.222Z,25.53
2019-01-10T20:48:25.719Z,24.03
2019-01-10T20:50:56.248Z,24.30
2019-01-10T20:53:26.809Z,22.27
2019-01-10T20:55:57.321Z,23.10
2019-01-10T20:58:27.835Z,23.57
2019-01-10T21:00:59.994Z,20.77
2019-01-10T21:03:30.474Z,20.30
2019-01-10T21:06:01.034Z,20.27
2019-01-10T21:08:31.521Z,25.30
2019-01-10T21:11:02.121Z,19.87
2019-01-10T21:13:32.650Z,22.63
2019-01-10T21:16:03.228Z,21.40
2019-01-10T21:18:33.717Z,24.10
2019-01-10T21:21:04.478Z,22.63
2019-01-10T21:23:35.101Z,23.77
2019-01-10T21:26:05.973Z,21.50
2019-01-10T21:28:36.646Z,24.40
2019-01-10T21:31:08.550Z,29.63
2019-01-10T21:33:39.086Z,20.40
2019-01-10T21:36:09.690Z,23.00
2019-01-10T21:38:40.181Z,21.17
2019-01-10T21:41:11.879Z,21.60
2019-01-10T21:43:42.360Z,23.50
2019-01-10T21:46:13.159Z,25.90
2019-01-10T21:48:43.704Z,22.23
2019-01-10T21:51:14.287Z,26.73
2019-01-10T21:53:44.770Z,27.20
2019-01-10T21:56:15.365Z,26.00
2019-01-10T21:58:45.848Z,27.23
2019-01-10T22:01:16.376Z,24.37
2019-01-10T22:03:46.859Z,29.30
2019-01-10T22:06:17.426Z,22.10
2019-01-10T22:08:47.916Z,28.60
2019-01-10T22:11:18.445Z,23.27
2019-01-10T22:13:48.943Z,27.10
2019-01-10T22:16:19.467Z,26.20
2019-01-10T22:18:49.958Z,26.00
2019-01-10T22:21:20.489Z,22.07
2019-01-10T22:23:51.008Z,23.80
2019-01-10T22:26:21.504Z,30.20
2019-01-10T22:28:52.021Z,33.30
2019-01-10T22:31:22.544Z,27.73
2019-01-10T22:33:53.121Z,25.40
2019-01-10T22:36:23.620Z,21.07
2019-01-10T22:38:54.147Z,27.63
2019-01-10T22:41:24.629Z,22.47
2019-01-10T22:43:55.154Z,29.50
2019-01-10T22:46:25.636Z,25.27
2019-01-10T22:48:56.520Z,28.33
2019-01-10T22:51:27.010Z,27.03
2019-01-10T22:53:57.537Z,21.00
2019-01-10T22:56:28.017Z,24.23
2019-01-10T22:58:58.558Z,23.37
2019-01-10T23:01:33.230Z,26.73
2019-01-10T23:04:04.093Z,27.23
2019-01-10T23:06:34.588Z,27.90
2019-01-10T23:09:08.141Z,24.63
2019-01-10T23:11:38.813Z,29.50
2019-01-10T23:14:09.406Z,29.10
2019-01-10T23:16:40.017Z,25.17
2019-01-10T23:19:10.657Z,21.33
2019-01-10T23:21:41.249Z,26.17
2019-01-10T23:24:13.001Z,23.47
2019-01-10T23:26:48.235Z,29.00
2019-01-10T23:29:18.761Z,31.33
2019-01-10T23:31:49.618Z,24.97
2019-01-10T23:34:20.140Z,24.40
2019-01-10T23:36:52.280Z,30.80
2019-01-10T23:39:23.097Z,25.80
2019-01-10T23:41:53.945Z,24.30
2019-01-10T23:44:24.730Z,27.70
2019-01-10T23:46:55.249Z,30.50
2019-01-10T23:49:25.761Z,23.67
2019-01-10T23:51:56.285Z,25.20
2019-01-10T23:54:26.774Z,24.60
2019-01-10T23:56:57.292Z,27.10
2019-01-10T23:59:27.815Z,27.03
